Strona główna
METAR-TAF:

METAR-TAF

Lotnisko :

Port lotniczy Dortmund

Dortmund, Niemcy

Szerokość geograficzna: 51-31N, Długość geograficzna: 007-37E, wysokość: 127 m

Aktualna obserwacja pogody

Raport powstał 32 minut temu, godzina 18:20 UTC
Wiatr 6 kt od południowy wschód
Temperatura 19°C
Wilgotność 64%
Ciśnienie 1014 hPa
Widzialność 10 km lub więcej
Brak chmur poniżej 1500 m i brak chmur cumulonimbus

METAR: EDLW 171820Z 13006KT CAVOK 19/12 Q1014

czas: 20:52 (18:52 UTC)

Prognoza

Raport powstał 1 godzina i 52 minut temu, godzina 17:00 UTC
Prognoza ważna od 17 godzina 18 UTC do 18 godzina 18 UTC
Wiatr 3 kt z kierunków zmiennych
Widzialność 10 km lub więcej
Mało chmury na wysokości 3500 ft
Stopniowe zmiany
od 18 godzina 03 UTC do 18 godzina 06 UTC
Wiatr 5 kt od południe
Stopniowe zmiany
od 18 godzina 09 UTC do 18 godzina 12 UTC
Wiatr 7 kt od zachodnio-południowy zachód

TAF: EDLW 171700Z 1718/1818 VRB03KT 9999 FEW035 BECMG 1803/1806 18005KT BECMG 1809/1812 24007KT

Obserwacja i prognoza pogody dla ponad 4000 lotnisk (raport METAR i TAF).

Dostępne stacje oznaczono żółtymi i czerwonymi punktami na mapie.

Najedź kursorem aby zobaczyć nazwę stacji.

Kliknij aby zobaczyć obserwacje i prognozy pogody.

Aby zmienić mapę: kliknij na zielony przycisk z czarnym krzyżykiem, aby powiększyć; na zielony przycisk z myślnikiem, aby pomniejszyć; na zielone strzałki, aby przejść do map sąsiednich.


METAR-TAF: